createdAt,value
2018-10-09T00:01:46.356Z,12.90
2018-10-09T00:04:14.882Z,12.80
2018-10-09T00:06:43.467Z,12.70
2018-10-09T00:09:11.997Z,12.60
2018-10-09T00:11:40.483Z,12.60
2018-10-09T00:14:08.965Z,12.50
2018-10-09T00:16:37.503Z,12.50
2018-10-09T00:19:06.053Z,12.40
2018-10-09T00:21:34.542Z,12.40
2018-10-09T00:24:03.083Z,12.30
2018-10-09T00:26:31.615Z,12.30
2018-10-09T00:29:00.110Z,12.20
2018-10-09T00:31:28.596Z,12.30
2018-10-09T00:33:57.092Z,12.40
2018-10-09T00:36:25.651Z,12.40
2018-10-09T00:38:54.126Z,12.40
2018-10-09T00:41:22.626Z,12.40
2018-10-09T00:43:51.191Z,12.40
2018-10-09T00:46:19.691Z,12.30
2018-10-09T00:48:48.198Z,12.30
2018-10-09T00:51:16.697Z,12.30
2018-10-09T00:53:45.176Z,12.30
2018-10-09T00:56:13.664Z,12.30
2018-10-09T00:58:42.187Z,12.40
2018-10-09T01:01:10.694Z,12.40
2018-10-09T01:03:39.564Z,12.50
2018-10-09T01:06:08.123Z,12.50
2018-10-09T01:08:36.703Z,12.60
2018-10-09T01:11:05.199Z,12.60
2018-10-09T01:13:33.714Z,12.70
2018-10-09T01:16:02.199Z,12.70
2018-10-09T01:18:30.687Z,12.60
2018-10-09T01:20:59.196Z,12.70
2018-10-09T01:23:27.678Z,12.70
2018-10-09T01:25:56.169Z,12.70
2018-10-09T01:28:24.667Z,12.70
2018-10-09T01:30:53.151Z,12.70
2018-10-09T01:33:21.644Z,12.70
2018-10-09T01:35:50.184Z,12.70
2018-10-09T01:38:18.667Z,12.80
2018-10-09T01:40:47.141Z,12.80
2018-10-09T01:43:15.647Z,12.90
2018-10-09T01:45:44.111Z,12.90
2018-10-09T01:48:12.616Z,13.00
2018-10-09T01:50:41.131Z,12.90
2018-10-09T01:53:09.649Z,12.90
2018-10-09T01:55:38.121Z,12.90
2018-10-09T01:58:06.648Z,12.90
2018-10-09T02:00:35.128Z,13.00
2018-10-09T02:03:03.602Z,13.00
2018-10-09T02:05:32.136Z,12.90
2018-10-09T02:08:00.623Z,12.90
2018-10-09T02:10:29.184Z,12.90
2018-10-09T02:12:57.692Z,12.80
2018-10-09T02:15:26.168Z,12.80
2018-10-09T02:17:54.703Z,12.80
2018-10-09T02:20:23.182Z,12.80
2018-10-09T02:22:51.891Z,12.80
2018-10-09T02:25:20.386Z,12.80
2018-10-09T02:27:48.883Z,12.80
2018-10-09T02:30:17.360Z,12.90
2018-10-09T02:32:45.862Z,12.90
2018-10-09T02:35:14.428Z,12.90
2018-10-09T02:37:42.922Z,13.00
2018-10-09T02:40:11.403Z,13.00
2018-10-09T02:42:39.887Z,13.00
2018-10-09T02:45:08.407Z,13.00
2018-10-09T02:47:36.937Z,13.00
2018-10-09T02:50:05.975Z,13.00
2018-10-09T02:52:34.468Z,13.00
2018-10-09T02:55:02.929Z,13.10
2018-10-09T02:57:31.430Z,13.10
2018-10-09T02:59:59.937Z,13.10
2018-10-09T03:02:28.411Z,13.20
2018-10-09T03:04:56.935Z,13.20
2018-10-09T03:07:25.397Z,13.20
2018-10-09T03:09:53.877Z,13.20
2018-10-09T03:12:22.363Z,13.20
2018-10-09T03:14:50.850Z,13.20
2018-10-09T03:17:19.335Z,13.20
2018-10-09T03:19:47.873Z,13.20
2018-10-09T03:22:16.409Z,13.10
2018-10-09T03:24:44.890Z,13.10
2018-10-09T03:27:13.551Z,13.10
2018-10-09T03:29:42.027Z,13.00
2018-10-09T03:32:10.510Z,13.00
2018-10-09T03:34:39.011Z,13.00
2018-10-09T03:37:07.577Z,13.00
2018-10-09T03:39:36.068Z,12.90
2018-10-09T03:42:04.776Z,12.90
2018-10-09T03:44:33.263Z,12.90
2018-10-09T03:47:01.762Z,12.80
2018-10-09T03:49:30.262Z,12.80
2018-10-09T03:51:58.748Z,12.70
2018-10-09T03:54:27.214Z,12.60
2018-10-09T03:56:55.706Z,12.60
2018-10-09T03:59:24.194Z,12.70
2018-10-09T04:01:52.672Z,12.70
2018-10-09T04:04:21.180Z,12.80
2018-10-09T04:06:49.671Z,12.80
2018-10-09T04:09:18.152Z,12.70
2018-10-09T04:11:46.648Z,12.70
2018-10-09T04:14:15.112Z,12.60
2018-10-09T04:16:43.582Z,12.50
2018-10-09T04:19:12.098Z,12.50
2018-10-09T04:21:40.568Z,12.40
2018-10-09T04:24:09.040Z,12.40
2018-10-09T04:26:37.530Z,12.40
2018-10-09T04:29:06.056Z,12.40
2018-10-09T04:31:34.553Z,12.40
2018-10-09T04:34:03.038Z,12.30
2018-10-09T04:36:31.517Z,12.30
2018-10-09T04:39:00.039Z,12.20
2018-10-09T04:41:28.533Z,12.10
2018-10-09T04:43:57.053Z,12.10
2018-10-09T04:46:25.560Z,12.00
2018-10-09T04:48:54.033Z,11.90
2018-10-09T04:51:22.515Z,11.90
2018-10-09T04:53:53.985Z,11.90
2018-10-09T04:56:22.471Z,11.90
2018-10-09T04:58:50.955Z,11.90
2018-10-09T05:01:19.433Z,11.90
2018-10-09T05:03:47.907Z,11.90
2018-10-09T05:06:16.395Z,11.90
2018-10-09T05:08:44.860Z,11.90
2018-10-09T05:11:13.328Z,11.90
2018-10-09T05:13:41.830Z,11.90
2018-10-09T05:16:10.323Z,11.90
2018-10-09T05:18:38.820Z,11.80
2018-10-09T05:21:07.303Z,11.80
2018-10-09T05:23:35.815Z,11.70
2018-10-09T05:26:04.356Z,11.60
2018-10-09T05:28:32.855Z,11.60
2018-10-09T05:31:01.400Z,11.60
2018-10-09T05:33:29.828Z,11.60
2018-10-09T05:35:58.328Z,11.50
2018-10-09T05:38:26.828Z,11.40
2018-10-09T05:40:55.300Z,11.30
2018-10-09T05:43:23.794Z,11.30
2018-10-09T05:45:52.278Z,11.20
2018-10-09T05:48:20.756Z,11.20
2018-10-09T05:50:49.246Z,11.20
2018-10-09T05:53:17.726Z,11.20
2018-10-09T05:55:46.210Z,11.20
2018-10-09T05:58:14.687Z,11.30
2018-10-09T06:00:43.177Z,11.20
2018-10-09T06:03:11.656Z,11.30
2018-10-09T06:05:40.131Z,11.30
2018-10-09T06:08:08.615Z,11.30
2018-10-09T06:10:37.108Z,11.30
2018-10-09T06:13:05.610Z,11.30
2018-10-09T06:15:34.201Z,11.30
2018-10-09T06:18:02.647Z,11.30
2018-10-09T06:20:31.128Z,11.30
2018-10-09T06:22:59.629Z,11.30
2018-10-09T06:25:28.128Z,11.30
2018-10-09T06:27:56.638Z,11.40
2018-10-09T06:30:25.140Z,11.40
2018-10-09T06:32:53.643Z,11.40
2018-10-09T06:35:22.146Z,11.40
2018-10-09T06:37:50.720Z,11.30
2018-10-09T06:40:19.236Z,11.30
2018-10-09T06:42:47.735Z,11.20
2018-10-09T06:45:16.220Z,11.20
2018-10-09T06:47:44.725Z,11.20
2018-10-09T06:50:13.228Z,11.30
2018-10-09T06:52:41.702Z,11.40
2018-10-09T06:55:10.190Z,11.50
2018-10-09T06:57:38.676Z,11.60
2018-10-09T07:00:07.857Z,11.70
2018-10-09T07:02:36.415Z,11.80
2018-10-09T07:05:05.065Z,11.80
2018-10-09T07:07:33.573Z,11.90
2018-10-09T07:10:02.130Z,11.90
2018-10-09T07:12:30.654Z,11.90
2018-10-09T07:14:59.141Z,11.90
2018-10-09T07:17:27.965Z,12.00
2018-10-09T07:19:56.465Z,12.10
2018-10-09T07:22:24.929Z,12.30
2018-10-09T07:24:53.464Z,12.60
2018-10-09T07:27:21.947Z,12.90
2018-10-09T07:29:50.493Z,13.20
2018-10-09T07:32:18.974Z,13.30
2018-10-09T07:34:47.464Z,13.50
2018-10-09T07:37:15.953Z,13.60
2018-10-09T07:39:44.451Z,13.70
2018-10-09T07:42:12.959Z,13.80
2018-10-09T07:44:41.433Z,13.90
2018-10-09T07:47:09.945Z,14.10
2018-10-09T07:49:38.463Z,14.20
2018-10-09T07:52:07.065Z,14.40
2018-10-09T07:54:35.622Z,14.60
2018-10-09T07:57:04.144Z,14.70
2018-10-09T07:59:32.752Z,14.90
2018-10-09T08:02:01.244Z,15.00
2018-10-09T08:04:29.764Z,15.10
2018-10-09T08:06:58.262Z,15.30
2018-10-09T08:09:26.748Z,15.40
2018-10-09T08:11:55.236Z,15.50
2018-10-09T08:14:23.720Z,15.70
2018-10-09T08:16:52.274Z,15.90
2018-10-09T08:19:20.764Z,16.10
2018-10-09T08:21:49.264Z,16.20
2018-10-09T08:24:17.748Z,16.30
2018-10-09T08:26:46.256Z,16.30
2018-10-09T08:29:14.749Z,16.50
2018-10-09T08:31:43.252Z,16.60
2018-10-09T08:34:11.735Z,16.70
2018-10-09T08:36:40.225Z,16.70
2018-10-09T08:39:08.738Z,16.50
2018-10-09T08:41:37.217Z,16.60
2018-10-09T08:44:05.773Z,16.60
2018-10-09T08:46:34.284Z,16.80
2018-10-09T08:49:02.747Z,16.90
2018-10-09T08:51:31.261Z,16.90
2018-10-09T08:53:59.733Z,16.70
2018-10-09T08:56:28.216Z,16.70
2018-10-09T08:58:56.729Z,16.70
2018-10-09T09:01:25.233Z,16.70
2018-10-09T09:03:53.784Z,16.70
2018-10-09T09:06:22.306Z,16.80
2018-10-09T09:08:50.787Z,17.00
2018-10-09T09:11:19.299Z,17.10
2018-10-09T09:13:47.796Z,17.20
2018-10-09T09:16:16.292Z,17.20
2018-10-09T09:18:44.785Z,17.20
2018-10-09T09:21:13.337Z,17.10
2018-10-09T09:23:41.778Z,17.00
2018-10-09T09:26:10.360Z,16.90
2018-10-09T09:28:38.790Z,16.90
2018-10-09T09:31:07.288Z,16.90
2018-10-09T09:33:35.762Z,16.80
2018-10-09T09:36:04.315Z,16.70
2018-10-09T09:38:32.808Z,16.70
2018-10-09T09:41:01.340Z,16.70
2018-10-09T09:43:29.828Z,16.80
2018-10-09T09:45:58.369Z,16.70
2018-10-09T09:48:26.812Z,16.70
2018-10-09T09:50:55.323Z,16.70
2018-10-09T09:53:23.788Z,16.80
2018-10-09T09:55:52.262Z,16.80
2018-10-09T09:58:20.801Z,16.90
2018-10-09T10:00:55.909Z,16.80
2018-10-09T10:03:24.424Z,16.80
2018-10-09T10:05:52.926Z,16.80
2018-10-09T10:08:21.404Z,16.80
2018-10-09T10:10:49.939Z,16.80
2018-10-09T10:13:18.387Z,16.70
2018-10-09T10:15:46.958Z,16.80
2018-10-09T10:18:15.366Z,16.70
2018-10-09T10:20:43.850Z,16.70
2018-10-09T10:23:12.373Z,16.80
2018-10-09T10:25:40.871Z,16.70
2018-10-09T10:28:09.369Z,16.70
2018-10-09T10:30:37.843Z,16.70
2018-10-09T10:33:06.357Z,16.70
2018-10-09T10:35:34.888Z,16.80
2018-10-09T10:38:03.386Z,16.80
2018-10-09T10:40:31.879Z,16.90
2018-10-09T10:43:00.411Z,16.90
2018-10-09T10:45:28.911Z,16.90
2018-10-09T10:47:57.386Z,16.90
2018-10-09T10:50:25.874Z,16.90
2018-10-09T10:52:54.353Z,17.00
2018-10-09T10:55:22.894Z,17.00
2018-10-09T10:57:51.391Z,17.10
2018-10-09T11:00:19.906Z,17.00
2018-10-09T11:02:48.451Z,17.20
2018-10-09T11:05:16.945Z,17.20
2018-10-09T11:07:45.431Z,17.20
2018-10-09T11:10:13.907Z,17.20
2018-10-09T11:12:42.429Z,17.20
2018-10-09T11:15:10.966Z,17.30
2018-10-09T11:17:39.454Z,17.30
2018-10-09T11:20:07.991Z,17.20
2018-10-09T11:22:36.508Z,17.30
2018-10-09T11:25:05.046Z,17.40
2018-10-09T11:27:33.536Z,17.50
2018-10-09T11:30:02.022Z,17.50
2018-10-09T11:32:30.574Z,17.60
2018-10-09T11:34:59.043Z,17.50
2018-10-09T11:37:27.510Z,17.50
2018-10-09T11:39:56.012Z,17.50
2018-10-09T11:42:24.487Z,17.50
2018-10-09T11:44:52.986Z,17.50
2018-10-09T11:47:21.501Z,17.50
2018-10-09T11:49:50.047Z,17.60
2018-10-09T11:52:18.662Z,17.60
2018-10-09T11:54:47.156Z,17.60
2018-10-09T11:57:15.640Z,17.60
2018-10-09T11:59:44.127Z,17.60
2018-10-09T12:02:12.595Z,17.60
2018-10-09T12:04:41.132Z,17.60
2018-10-09T12:07:09.639Z,17.70
2018-10-09T12:09:38.111Z,17.80
2018-10-09T12:12:06.634Z,17.80
2018-10-09T12:14:35.141Z,17.90
2018-10-09T12:17:03.677Z,18.10
2018-10-09T12:19:32.165Z,18.20
2018-10-09T12:22:00.655Z,18.20
2018-10-09T12:24:29.141Z,18.30
2018-10-09T12:26:57.675Z,18.40
2018-10-09T12:29:26.169Z,18.60
2018-10-09T12:31:54.677Z,18.70
2018-10-09T12:34:23.189Z,18.90
2018-10-09T12:36:51.768Z,19.10
2018-10-09T12:39:20.237Z,19.30
2018-10-09T12:41:48.730Z,19.60
2018-10-09T12:44:17.284Z,19.90
2018-10-09T12:46:45.723Z,20.20
2018-10-09T12:49:14.324Z,20.20
2018-10-09T12:51:42.821Z,20.30
2018-10-09T12:54:11.364Z,20.30
2018-10-09T12:56:39.847Z,20.50
2018-10-09T12:59:08.381Z,20.70
2018-10-09T13:01:36.840Z,21.00
2018-10-09T13:04:05.398Z,21.10
2018-10-09T13:06:33.907Z,21.20
2018-10-09T13:09:02.484Z,21.20
2018-10-09T13:11:30.974Z,21.20
2018-10-09T13:13:59.457Z,21.50
2018-10-09T13:16:27.960Z,21.60
2018-10-09T13:18:56.460Z,21.80
2018-10-09T13:21:25.169Z,21.90
2018-10-09T13:23:53.508Z,21.90
2018-10-09T13:26:22.004Z,21.70
2018-10-09T13:28:50.492Z,21.80
2018-10-09T13:31:18.966Z,21.90
2018-10-09T13:33:47.450Z,22.00
2018-10-09T13:36:15.973Z,22.20
2018-10-09T13:38:44.468Z,22.10
2018-10-09T13:41:12.978Z,22.20
2018-10-09T13:43:41.468Z,22.30
2018-10-09T13:46:10.207Z,22.40
2018-10-09T13:48:38.684Z,22.40
2018-10-09T13:51:07.332Z,22.30
2018-10-09T13:53:35.869Z,22.40
2018-10-09T13:56:04.411Z,22.40
2018-10-09T13:58:32.926Z,22.40
2018-10-09T14:01:01.427Z,22.60
2018-10-09T14:03:29.909Z,22.80
2018-10-09T14:06:05.130Z,22.80
2018-10-09T14:08:33.621Z,22.90
2018-10-09T14:11:02.141Z,22.90
2018-10-09T14:13:30.643Z,22.90
2018-10-09T14:15:59.127Z,22.90
2018-10-09T14:18:30.479Z,23.10
2018-10-09T14:20:59.002Z,23.20
2018-10-09T14:23:27.495Z,23.40
2018-10-09T14:25:56.042Z,23.60
2018-10-09T14:28:24.545Z,23.40
2018-10-09T14:30:53.057Z,23.30
2018-10-09T14:33:21.560Z,23.30
2018-10-09T14:35:50.074Z,23.40
2018-10-09T14:38:18.562Z,23.50
2018-10-09T14:40:47.058Z,23.60
2018-10-09T14:43:15.609Z,23.70
2018-10-09T14:45:44.095Z,23.60
2018-10-09T14:48:12.584Z,23.20
2018-10-09T14:50:41.075Z,23.20
2018-10-09T14:53:09.568Z,23.40
2018-10-09T14:55:38.046Z,23.20
2018-10-09T14:58:06.569Z,22.90
2018-10-09T15:00:35.074Z,22.30
2018-10-09T15:03:03.589Z,22.10
2018-10-09T15:05:32.095Z,22.00
2018-10-09T15:08:00.592Z,21.40
2018-10-09T15:10:29.109Z,21.00
2018-10-09T15:12:57.593Z,20.60
2018-10-09T15:15:26.094Z,20.40
2018-10-09T15:17:54.580Z,20.10
2018-10-09T15:20:23.091Z,19.80
2018-10-09T15:22:51.643Z,19.60
2018-10-09T15:25:20.120Z,19.30
2018-10-09T15:27:48.660Z,19.00
2018-10-09T15:30:17.176Z,18.80
2018-10-09T15:32:45.691Z,18.70
2018-10-09T15:35:14.213Z,18.50
2018-10-09T15:37:42.692Z,18.40
2018-10-09T15:40:11.264Z,18.30
2018-10-09T15:42:39.788Z,18.20
2018-10-09T15:45:08.363Z,18.10
2018-10-09T15:47:36.892Z,18.00
2018-10-09T15:50:05.439Z,17.90
2018-10-09T15:52:33.949Z,17.80
2018-10-09T15:55:02.473Z,17.60
2018-10-09T15:57:30.996Z,17.50
2018-10-09T15:59:59.514Z,17.40
2018-10-09T16:02:28.011Z,17.30
2018-10-09T16:04:56.556Z,17.20
2018-10-09T16:07:25.099Z,17.10
2018-10-09T16:09:53.639Z,17.00
2018-10-09T16:12:22.180Z,17.00
2018-10-09T16:14:50.682Z,16.90
2018-10-09T16:17:19.193Z,16.90
2018-10-09T16:19:47.900Z,16.80
2018-10-09T16:22:16.450Z,16.70
2018-10-09T16:24:44.988Z,16.70
2018-10-09T16:27:13.479Z,16.60
2018-10-09T16:29:42.025Z,16.50
2018-10-09T16:32:10.566Z,16.50
2018-10-09T16:34:39.078Z,16.50
2018-10-09T16:37:07.885Z,16.60
2018-10-09T16:39:36.403Z,16.60
2018-10-09T16:42:04.945Z,16.50
2018-10-09T16:44:33.480Z,16.40
2018-10-09T16:47:05.963Z,16.30
2018-10-09T16:49:36.953Z,16.20
2018-10-09T16:52:05.526Z,16.10
2018-10-09T16:54:34.065Z,16.00
2018-10-09T16:57:02.618Z,15.90
2018-10-09T16:59:31.133Z,15.80
2018-10-09T17:01:59.643Z,15.70
2018-10-09T17:04:28.214Z,15.60
2018-10-09T17:06:56.785Z,15.60
2018-10-09T17:09:25.287Z,15.50
2018-10-09T17:11:53.852Z,15.50
2018-10-09T17:14:22.409Z,15.40
2018-10-09T17:16:50.958Z,15.40
2018-10-09T17:19:19.622Z,15.40
2018-10-09T17:21:48.197Z,15.40
2018-10-09T17:24:16.742Z,15.40
2018-10-09T17:26:45.288Z,15.40
2018-10-09T17:29:13.777Z,15.30
2018-10-09T17:31:42.362Z,15.30
2018-10-09T17:34:10.893Z,15.30
2018-10-09T17:36:39.628Z,15.30
2018-10-09T17:39:09.814Z,15.10
2018-10-09T17:41:38.775Z,15.10
2018-10-09T17:44:07.396Z,15.20
2018-10-09T17:46:36.216Z,15.20
2018-10-09T17:49:04.733Z,15.20
2018-10-09T17:51:33.801Z,15.20
2018-10-09T17:54:02.310Z,15.10
2018-10-09T17:56:30.844Z,15.10
2018-10-09T17:58:59.341Z,15.10
2018-10-09T18:01:27.918Z,15.00
2018-10-09T18:03:56.399Z,15.00
2018-10-09T18:06:24.908Z,14.90
2018-10-09T18:08:53.490Z,14.90
2018-10-09T18:11:21.921Z,14.80
2018-10-09T18:13:50.412Z,14.80
2018-10-09T18:16:18.926Z,14.80
2018-10-09T18:18:47.418Z,14.80
2018-10-09T18:21:15.915Z,14.80
2018-10-09T18:23:44.409Z,14.80
2018-10-09T18:26:12.952Z,14.80
2018-10-09T18:28:41.467Z,14.60
2018-10-09T18:31:09.958Z,14.50
2018-10-09T18:33:38.485Z,14.40
2018-10-09T18:36:07.414Z,14.40
2018-10-09T18:38:35.889Z,14.50
2018-10-09T18:41:04.420Z,14.50
2018-10-09T18:43:32.983Z,14.40
2018-10-09T18:46:01.506Z,14.30
2018-10-09T18:48:30.073Z,14.20
2018-10-09T18:50:58.570Z,14.20
2018-10-09T18:53:27.060Z,14.20
2018-10-09T18:55:55.569Z,14.30
2018-10-09T18:58:24.088Z,14.30
2018-10-09T19:00:52.601Z,14.20
2018-10-09T19:03:21.138Z,14.10
2018-10-09T19:05:49.692Z,14.10
2018-10-09T19:08:18.228Z,14.10
2018-10-09T19:10:46.947Z,14.10
2018-10-09T19:13:15.391Z,14.00
2018-10-09T19:15:43.921Z,13.90
2018-10-09T19:18:12.536Z,13.80
2018-10-09T19:20:41.068Z,13.70
2018-10-09T19:23:09.616Z,13.70
2018-10-09T19:25:38.112Z,13.60
2018-10-09T19:28:07.510Z,13.50
2018-10-09T19:30:36.060Z,13.50
2018-10-09T19:33:04.691Z,13.60
2018-10-09T19:35:33.514Z,13.70
2018-10-09T19:38:02.049Z,13.70
2018-10-09T19:40:30.746Z,13.70
2018-10-09T19:42:59.250Z,13.70
2018-10-09T19:45:27.801Z,13.80
2018-10-09T19:47:56.275Z,13.80
2018-10-09T19:50:24.768Z,13.70
2018-10-09T19:52:53.284Z,13.70
2018-10-09T19:55:21.807Z,13.70
2018-10-09T19:57:50.312Z,13.60
2018-10-09T20:00:18.865Z,13.60
2018-10-09T20:02:47.399Z,13.60
2018-10-09T20:05:15.935Z,13.60
2018-10-09T20:07:44.773Z,13.50
2018-10-09T20:10:13.297Z,13.50
2018-10-09T20:12:41.824Z,13.40
2018-10-09T20:15:10.369Z,13.40
2018-10-09T20:17:38.883Z,13.40
2018-10-09T20:20:07.399Z,13.40
2018-10-09T20:22:35.919Z,13.30
2018-10-09T20:25:04.504Z,13.40
2018-10-09T20:27:32.990Z,13.40
2018-10-09T20:30:01.512Z,13.30
2018-10-09T20:32:30.026Z,13.30
2018-10-09T20:34:58.568Z,13.20
2018-10-09T20:37:27.342Z,13.10
2018-10-09T20:39:55.834Z,13.10
2018-10-09T20:42:24.362Z,13.20
2018-10-09T20:44:52.876Z,13.10
2018-10-09T20:47:26.574Z,13.00
2018-10-09T20:49:55.122Z,13.10
2018-10-09T20:52:23.623Z,13.10
2018-10-09T20:54:52.388Z,13.10
2018-10-09T20:57:20.927Z,13.10
2018-10-09T20:59:49.402Z,13.20
2018-10-09T21:02:17.943Z,13.20
2018-10-09T21:04:46.437Z,13.20
2018-10-09T21:07:14.980Z,13.20
2018-10-09T21:09:43.511Z,13.10
2018-10-09T21:12:12.007Z,13.00
2018-10-09T21:14:40.535Z,13.00
2018-10-09T21:17:09.031Z,13.00
2018-10-09T21:19:37.531Z,13.00
2018-10-09T21:22:06.029Z,12.90
2018-10-09T21:24:34.575Z,13.00
2018-10-09T21:27:03.061Z,12.90
2018-10-09T21:29:31.563Z,12.90
2018-10-09T21:32:00.085Z,12.90
2018-10-09T21:34:28.573Z,13.00
2018-10-09T21:36:57.083Z,13.00
2018-10-09T21:39:25.584Z,13.00
2018-10-09T21:41:54.127Z,13.00
2018-10-09T21:44:22.617Z,12.90
2018-10-09T21:46:51.142Z,12.80
2018-10-09T21:49:19.657Z,12.80
2018-10-09T21:51:48.153Z,12.80
2018-10-09T21:54:16.669Z,12.70
2018-10-09T21:56:45.173Z,12.60
2018-10-09T21:59:13.688Z,12.70
2018-10-09T22:01:42.172Z,12.70
2018-10-09T22:04:10.678Z,12.60
2018-10-09T22:06:39.174Z,12.70
2018-10-09T22:09:08.252Z,12.70
2018-10-09T22:11:36.818Z,12.70
2018-10-09T22:14:05.431Z,12.70
2018-10-09T22:16:33.950Z,12.60
2018-10-09T22:19:02.443Z,12.60
2018-10-09T22:21:30.956Z,12.50
2018-10-09T22:23:59.468Z,12.50
2018-10-09T22:26:27.972Z,12.40
2018-10-09T22:28:56.462Z,12.40
2018-10-09T22:31:24.968Z,12.30
2018-10-09T22:33:53.473Z,12.30
2018-10-09T22:36:21.994Z,12.30
2018-10-09T22:38:50.498Z,12.30
2018-10-09T22:41:18.998Z,12.20
2018-10-09T22:43:47.482Z,12.10
2018-10-09T22:46:15.987Z,12.00
2018-10-09T22:48:44.476Z,12.00
2018-10-09T22:51:12.980Z,11.90
2018-10-09T22:53:41.485Z,12.00
2018-10-09T22:56:09.981Z,12.00
2018-10-09T22:58:38.472Z,12.10
2018-10-09T23:01:07.265Z,12.10
2018-10-09T23:03:35.816Z,12.10
2018-10-09T23:06:04.316Z,12.10
2018-10-09T23:08:32.833Z,12.00
2018-10-09T23:11:01.332Z,12.00
2018-10-09T23:13:29.816Z,12.00
2018-10-09T23:15:58.298Z,11.90
2018-10-09T23:18:26.942Z,11.90
2018-10-09T23:20:55.406Z,11.80
2018-10-09T23:23:23.900Z,11.80
2018-10-09T23:25:52.441Z,11.80
2018-10-09T23:28:20.973Z,11.80
2018-10-09T23:30:49.475Z,11.70
2018-10-09T23:33:17.963Z,11.60
2018-10-09T23:35:46.464Z,11.70
2018-10-09T23:38:14.976Z,11.80
2018-10-09T23:40:43.466Z,11.90
2018-10-09T23:43:12.076Z,11.90
2018-10-09T23:45:40.508Z,11.90
2018-10-09T23:48:10.021Z,11.90
2018-10-09T23:50:40.263Z,12.00
2018-10-09T23:53:08.818Z,12.00
2018-10-09T23:55:37.442Z,12.00
2018-10-09T23:58:06.474Z,12.00
